sensor_id;sensor_type;location;lat;lon;timestamp;pressure;altitude;pressure_sealevel;temperature;humidity
69796;BME280;57073;45.650;9.612;2022-11-25T00:02:15;99275.53;;;7.78;59.85
69796;BME280;57073;45.650;9.612;2022-11-25T00:12:16;99267.53;;;7.78;59.13
69796;BME280;57073;45.650;9.612;2022-11-25T00:22:16;99283.91;;;7.68;60.21
69796;BME280;57073;45.650;9.612;2022-11-25T00:32:17;99282.19;;;7.54;62.06
69796;BME280;57073;45.650;9.612;2022-11-25T00:42:17;99317.94;;;7.53;62.86
69796;BME280;57073;45.650;9.612;2022-11-25T00:52:36;99332.16;;;7.60;61.56
69796;BME280;57073;45.650;9.612;2022-11-25T01:02:36;99361.63;;;7.45;60.96
69796;BME280;57073;45.650;9.612;2022-11-25T01:12:37;99361.88;;;7.50;59.79
69796;BME280;57073;45.650;9.612;2022-11-25T01:22:37;99366.44;;;7.56;60.62
69796;BME280;57073;45.650;9.612;2022-11-25T01:32:37;99414.53;;;7.63;60.45
69796;BME280;57073;45.650;9.612;2022-11-25T01:42:42;99421.53;;;7.64;60.33
69796;BME280;57073;45.650;9.612;2022-11-25T01:52:45;99403.09;;;7.76;59.47
69796;BME280;57073;45.650;9.612;2022-11-25T02:02:49;99397.66;;;7.91;60.52
69796;BME280;57073;45.650;9.612;2022-11-25T02:12:50;99386.41;;;8.02;60.13
69796;BME280;57073;45.650;9.612;2022-11-25T02:33:10;99387.66;;;8.06;61.03
69796;BME280;57073;45.650;9.612;2022-11-25T02:43:11;99391.81;;;8.15;60.11
69796;BME280;57073;45.650;9.612;2022-11-25T02:53:12;99426.75;;;8.07;61.11
69796;BME280;57073;45.650;9.612;2022-11-25T03:03:13;99406.59;;;8.11;60.44
69796;BME280;57073;45.650;9.612;2022-11-25T03:13:14;99425.91;;;8.06;61.92
69796;BME280;57073;45.650;9.612;2022-11-25T03:23:14;99413.47;;;7.92;62.22
69796;BME280;57073;45.650;9.612;2022-11-25T03:33:16;99409.44;;;8.03;62.25
69796;BME280;57073;45.650;9.612;2022-11-25T03:43:16;99381.88;;;8.02;61.23
69796;BME280;57073;45.650;9.612;2022-11-25T03:53:16;99381.22;;;7.94;61.34
69796;BME280;57073;45.650;9.612;2022-11-25T04:03:17;99368.72;;;8.01;60.86
69796;BME280;57073;45.650;9.612;2022-11-25T04:13:18;99354.69;;;7.92;61.67
69796;BME280;57073;45.650;9.612;2022-11-25T04:23:18;99378.56;;;7.94;63.18
69796;BME280;57073;45.650;9.612;2022-11-25T04:33:19;99392.78;;;8.01;62.67
69796;BME280;57073;45.650;9.612;2022-11-25T04:43:19;99396.78;;;8.18;63.10
69796;BME280;57073;45.650;9.612;2022-11-25T04:53:20;99400.69;;;8.16;62.29
69796;BME280;57073;45.650;9.612;2022-11-25T05:03:20;99413.25;;;8.22;63.13
69796;BME280;57073;45.650;9.612;2022-11-25T05:13:20;99426.31;;;8.10;63.01
69796;BME280;57073;45.650;9.612;2022-11-25T05:23:21;99438.34;;;8.28;62.65
69796;BME280;57073;45.650;9.612;2022-11-25T05:33:21;99445.91;;;8.17;62.55
69796;BME280;57073;45.650;9.612;2022-11-25T05:43:21;99440.72;;;8.09;60.48
69796;BME280;57073;45.650;9.612;2022-11-25T05:53:22;99449.09;;;7.99;61.18
69796;BME280;57073;45.650;9.612;2022-11-25T06:03:23;99471.56;;;8.05;61.39
69796;BME280;57073;45.650;9.612;2022-11-25T06:13:24;99471.63;;;8.18;61.23
69796;BME280;57073;45.650;9.612;2022-11-25T06:23:25;99480.59;;;8.04;60.89
69796;BME280;57073;45.650;9.612;2022-11-25T06:33:25;99495.25;;;7.86;61.27
69796;BME280;57073;45.650;9.612;2022-11-25T06:43:26;99504.50;;;8.12;60.20
69796;BME280;57073;45.650;9.612;2022-11-25T06:53:27;99509.84;;;8.12;59.83
69796;BME280;57073;45.650;9.612;2022-11-25T07:03:27;99511.28;;;8.15;58.27
69796;BME280;57073;45.650;9.612;2022-11-25T07:13:28;99503.91;;;8.45;57.76
69796;BME280;57073;45.650;9.612;2022-11-25T07:23:29;99503.75;;;9.21;55.92
69796;BME280;57073;45.650;9.612;2022-11-25T07:33:29;99499.81;;;10.17;54.50
69796;BME280;57073;45.650;9.612;2022-11-25T07:43:30;99512.75;;;10.61;53.73
69796;BME280;57073;45.650;9.612;2022-11-25T07:53:30;99527.66;;;10.50;54.54
69796;BME280;57073;45.650;9.612;2022-11-25T08:03:32;99517.75;;;10.24;55.13
69796;BME280;57073;45.650;9.612;2022-11-25T08:13:33;99531.00;;;10.32;56.28
69796;BME280;57073;45.650;9.612;2022-11-25T08:23:33;99543.34;;;10.33;57.01
69796;BME280;57073;45.650;9.612;2022-11-25T08:33:34;99546.44;;;10.30;57.47
69796;BME280;57073;45.650;9.612;2022-11-25T08:43:34;99561.50;;;10.31;56.21
69796;BME280;57073;45.650;9.612;2022-11-25T08:53:36;99561.72;;;10.43;54.96
69796;BME280;57073;45.650;9.612;2022-11-25T09:03:40;99575.03;;;10.76;54.51
69796;BME280;57073;45.650;9.612;2022-11-25T09:13:40;99590.34;;;10.62;52.76
69796;BME280;57073;45.650;9.612;2022-11-25T09:23:41;99592.22;;;10.68;52.00
69796;BME280;57073;45.650;9.612;2022-11-25T09:33:41;99594.63;;;10.90;52.29
69796;BME280;57073;45.650;9.612;2022-11-25T09:54:18;99596.91;;;10.86;52.56
69796;BME280;57073;45.650;9.612;2022-11-25T10:04:28;99599.31;;;11.01;53.65
69796;BME280;57073;45.650;9.612;2022-11-25T10:14:38;99578.44;;;11.03;54.04
69796;BME280;57073;45.650;9.612;2022-11-25T10:24:39;99569.91;;;11.20;54.94
69796;BME280;57073;45.650;9.612;2022-11-25T10:34:47;99567.91;;;11.08;53.67
69796;BME280;57073;45.650;9.612;2022-11-25T10:44:49;99562.41;;;11.35;54.76
69796;BME280;57073;45.650;9.612;2022-11-25T10:55:08;99555.25;;;11.54;55.66
69796;BME280;57073;45.650;9.612;2022-11-25T11:15:20;99521.75;;;11.57;56.90
69796;BME280;57073;45.650;9.612;2022-11-25T11:35:28;99510.72;;;11.65;57.02
69796;BME280;57073;45.650;9.612;2022-11-25T12:06:15;99492.19;;;11.57;56.82
69796;BME280;57073;45.650;9.612;2022-11-25T12:16:22;99489.41;;;11.63;56.21
69796;BME280;57073;45.650;9.612;2022-11-25T12:36:48;99468.06;;;11.43;56.11
69796;BME280;57073;45.650;9.612;2022-11-25T12:46:51;99453.00;;;11.10;55.56
69796;BME280;57073;45.650;9.612;2022-11-25T13:17:13;99431.34;;;11.05;54.64
69796;BME280;57073;45.650;9.612;2022-11-25T13:37:53;99427.75;;;11.18;56.40
69796;BME280;57073;45.650;9.612;2022-11-25T13:47:55;99434.81;;;11.12;56.78
69796;BME280;57073;45.650;9.612;2022-11-25T13:58:24;99444.84;;;10.99;58.49
69796;BME280;57073;45.650;9.612;2022-11-25T14:38:55;99481.28;;;10.81;60.35
69796;BME280;57073;45.650;9.612;2022-11-25T14:49:02;99482.56;;;10.65;62.02
69796;BME280;57073;45.650;9.612;2022-11-25T14:59:02;99491.91;;;10.56;62.13
69796;BME280;57073;45.650;9.612;2022-11-25T15:09:18;99492.69;;;10.70;62.28
69796;BME280;57073;45.650;9.612;2022-11-25T15:19:23;99492.91;;;10.62;62.59
69796;BME280;57073;45.650;9.612;2022-11-25T15:29:27;99499.13;;;10.55;63.09
69796;BME280;57073;45.650;9.612;2022-11-25T15:39:28;99499.09;;;10.62;63.54
69796;BME280;57073;45.650;9.612;2022-11-25T15:49:31;99505.31;;;10.63;62.59
69796;BME280;57073;45.650;9.612;2022-11-25T16:09:49;99509.91;;;10.42;63.42
69796;BME280;57073;45.650;9.612;2022-11-25T16:19:50;99508.06;;;10.23;64.80
69796;BME280;57073;45.650;9.612;2022-11-25T16:40:04;99510.81;;;9.83;65.72
69796;BME280;57073;45.650;9.612;2022-11-25T16:50:14;99518.84;;;9.63;66.43
69796;BME280;57073;45.650;9.612;2022-11-25T17:00:15;99530.97;;;9.38;66.75
69796;BME280;57073;45.650;9.612;2022-11-25T17:10:17;99545.34;;;9.17;67.37
69796;BME280;57073;45.650;9.612;2022-11-25T17:20:21;99547.38;;;9.09;67.37
69796;BME280;57073;45.650;9.612;2022-11-25T17:30:24;99559.69;;;8.96;67.38
69796;BME280;57073;45.650;9.612;2022-11-25T17:40:25;99545.28;;;8.97;66.25
69796;BME280;57073;45.650;9.612;2022-11-25T17:50:26;99558.13;;;8.67;66.78
69796;BME280;57073;45.650;9.612;2022-11-25T18:00:26;99542.66;;;8.62;67.43
69796;BME280;57073;45.650;9.612;2022-11-25T18:10:27;99561.41;;;8.69;66.14
69796;BME280;57073;45.650;9.612;2022-11-25T18:20:28;99558.97;;;8.39;67.46
69796;BME280;57073;45.650;9.612;2022-11-25T18:30:33;99580.06;;;8.28;68.00
69796;BME280;57073;45.650;9.612;2022-11-25T18:40:36;99609.59;;;8.19;68.28
69796;BME280;57073;45.650;9.612;2022-11-25T18:50:39;99620.00;;;8.07;68.69
69796;BME280;57073;45.650;9.612;2022-11-25T19:00:39;99629.59;;;8.23;67.00
69796;BME280;57073;45.650;9.612;2022-11-25T19:10:42;99632.53;;;8.29;65.78
69796;BME280;57073;45.650;9.612;2022-11-25T19:20:44;99649.84;;;8.33;65.88
69796;BME280;57073;45.650;9.612;2022-11-25T19:30:45;99657.34;;;8.22;66.23
69796;BME280;57073;45.650;9.612;2022-11-25T19:40:47;99661.28;;;8.26;65.19
69796;BME280;57073;45.650;9.612;2022-11-25T19:50:49;99663.72;;;8.21;64.96
69796;BME280;57073;45.650;9.612;2022-11-25T20:01:01;99662.06;;;8.20;64.54
69796;BME280;57073;45.650;9.612;2022-11-25T20:11:02;99664.03;;;8.12;64.66
69796;BME280;57073;45.650;9.612;2022-11-25T20:21:04;99660.63;;;8.18;63.53
69796;BME280;57073;45.650;9.612;2022-11-25T20:31:04;99679.38;;;8.03;64.57
69796;BME280;57073;45.650;9.612;2022-11-25T20:41:05;99699.75;;;8.04;64.42
69796;BME280;57073;45.650;9.612;2022-11-25T20:51:17;99706.25;;;7.95;64.69
69796;BME280;57073;45.650;9.612;2022-11-25T21:01:19;99720.09;;;7.83;65.14
69796;BME280;57073;45.650;9.612;2022-11-25T21:11:20;99729.50;;;6.22;67.86
69796;BME280;57073;45.650;9.612;2022-11-25T21:21:30;99751.72;;;5.44;74.12
69796;BME280;57073;45.650;9.612;2022-11-25T21:31:32;99770.00;;;4.91;73.74
69796;BME280;57073;45.650;9.612;2022-11-25T21:41:34;99765.66;;;4.98;74.72
69796;BME280;57073;45.650;9.612;2022-11-25T21:51:34;99749.38;;;5.01;74.15
69796;BME280;57073;45.650;9.612;2022-11-25T22:01:35;99727.81;;;5.27;76.37
69796;BME280;57073;45.650;9.612;2022-11-25T22:11:37;99742.03;;;5.03;74.21
69796;BME280;57073;45.650;9.612;2022-11-25T22:21:38;99750.78;;;5.68;74.22
69796;BME280;57073;45.650;9.612;2022-11-25T22:31:38;99757.13;;;6.67;70.07
69796;BME280;57073;45.650;9.612;2022-11-25T22:41:42;99761.13;;;6.86;68.82
69796;BME280;57073;45.650;9.612;2022-11-25T22:51:42;99755.44;;;7.04;67.88
69796;BME280;57073;45.650;9.612;2022-11-25T23:01:43;99772.50;;;7.18;65.90
69796;BME280;57073;45.650;9.612;2022-11-25T23:11:44;99769.53;;;7.28;65.17
69796;BME280;57073;45.650;9.612;2022-11-25T23:21:45;99767.22;;;7.25;64.40
69796;BME280;57073;45.650;9.612;2022-11-25T23:31:45;99783.06;;;7.26;65.60
69796;BME280;57073;45.650;9.612;2022-11-25T23:41:46;99777.44;;;7.21;65.39
69796;BME280;57073;45.650;9.612;2022-11-25T23:51:47;99783.97;;;7.19;64.87
